Latest Observation

38 Stations

15 Minute Data | America/Los_Angeles
as of 5/19/24 6:48 AM PDT
Station Date Time Temp (°F) RH (%) Dew Pt (°F) Wind Spd (mph) Wind Dir (°) Wind Gust (mph) Latest Rain (In) Daily Rain (In) Daily Min Temp (°F) Daily Max Temp (°F) Daily Max Wind (mph)
Upper Lake 5/19/24 0645 44.4   6.7 93   4 42.6   7.9 1.0 E | 90 3.2   3.2 0.00 0.00 42.9   7.1 60.0   4.8 17.2   14.5
Scotts Valley 5/19/24 0645 38.3   9.5 97   1 37.5   9.8 0.0 N | 351 0.5   0.4 0.00 0.00 37.1   9.2 53.6   0.6 2.8   1.5
Scotts Valley-South (Bella Vista) 5/19/24 0645 42.0   9.5 91   2 39.7   10.2 0.3 SW | 216 1.5   0.9 0.00 0.00 40.8   8.9 49.9   7.3 4.8   0.7
Kelseyville 5/19/24 0645 44.3   8.3 86   9 40.4   10.9 0.5 WSW | 239 1.8   0.9 0.00 0.00 41.3   8.5 54.1   3.5 4.8   2.0
Kelseyville Remote 5/19/24 0645 47.2   5.7 69   20 37.4   12.4 - - - 0.00 0.00 42.3   5.8 53.9   0.8 -
Kelseyville (Clark Drive) 5/19/24 0645 43.4   7.4 - - - - - 0.00 0.00 40.7   7.7 53.4   3.0 -
Kelsey Bench (Oaklea) 5/19/24 0645 49.1   6.0 66   22 38.2   13.4 3.4 S | 178 5.8   0.0 0.00 0.00 44.9   8.8 53.9   7.3 6.4   0.0
Smith Lane (Kelseyville-South) 5/19/24 0645 46.4   7.5 88   8 42.9   9.6 0.0 N | 0 0.0   2.6 0.00 0.00 42.0   8.2 52.9   4.0 4.9   2.2
Bell Hill-West 5/19/24 0645 44.6   8.1 95   5 43.2   9.5 2.2 S | 183 3.1   0.3 0.00 0.00 43.0   8.6 54.6   3.2 4.4   0.3
Wight Way (Adobe Creek) 5/19/24 0600 41.6   7.2 89   9 38.5   9.6 2.4 SSE | 156 3.4   1.5 0.00 0.00 41.3   7.3 53.5   1.9 5.0   1.6
High Valley Ridgeline (Brassfield) 5/19/24 0645 54.9   5.4 42   42 32.5   23.0 6.0 W | 268 8.4   4.7 0.00 0.00 54.0   4.8 57.2   8.5 14.6   7.2
Ridgeline Top (Brassfield) 5/19/24 0645 56.4   8.2 - - - - - - - 53.0   5.8 57.8   8.1 -
Ridgeline Low (Brassfield) 5/19/24 0645 56.2   4.2 - - - - - - - 53.6   3.4 59.0   6.5 -
Long Valley (Shannon) 5/19/24 0645 40.3   8.6 - - 1.0 N | 4 2.5   1.0 0.00 0.00 39.5   7.8 50.7   4.5 4.1   0.2
High Valley Winery 5/19/24 0645 44.5   6.9 85   15 40.2   11.3 0.5 NE | 34 1.7   0.2 0.00 0.00 39.6   9.4 58.1   2.3 6.3   2.9
Round Mtn Rd. 5/19/24 0645 46.9   7.2 - - - - - - - 44.4   7.2 56.7   2.5 -
Circle O 5/19/24 0630 44.2   7.4 - - - - - - - 43.4   6.8 52.0   6.9 -
Robertsbridge Vineyards 5/19/24 0645 42.0   9.8 87   7 38.6   11.8 - - - - - 40.6   10.3 46.6   9.6 -
Urgency Vineyard 5/19/24 0645 53.5   1.8 56   31 38.4   13.1 1.1 SSW | 210 3.2   0.7 0.00 0.00 48.2   1.6 58.2   5.7 10.2   5.5
Red Hills (Beckstoffer) 5/19/24 0645 48.2   4.5 69   27 38.6   13.1 - - - 0.00 0.00 42.6   5.7 60.0   5.4 -
Winters (Shannon) 5/19/24 0645 39.7   8.8 90   6 37.0   10.4 0.3 N | 3 2.0   0.1 0.00 0.00 37.5   9.2 61.1   7.1 11.6   9.6
Secret Pond (Shannon) 5/19/24 0645 52.8   1.7 45   51 31.9   18.0 3.1 NNW | 330 4.8   3.1 0.00 0.00 50.0   1.0 60.5   0.7 15.9   13.9
Rolling Knolls (Shannon) 5/19/24 0645 44.1   5.4 89   8 41.1   7.7 0.8 WNW | 291 2.5   1.0 0.00 0.00 42.8   5.1 61.7   5.7 6.3   3.4
Lower Lake 5/19/24 0645 56.6   2.0 59   31 42.4   13.2 2.0 W | 259 3.7   2.3 0.00 0.00 49.9   3.8 59.7   0.8 6.4   2.2
Adamson Ranch 5/19/24 0645 46.2   6.4 94   2 44.7   6.9 0.7 S | 171 1.8   0.4 0.00 0.00 41.9   7.5 51.7   5.3 2.8   0.2
Middletown (Diamond D) 5/19/24 0645 45.7   8.2 95   1 44.3   8.5 0.2 ESE | 120 1.4   0.3 0.00 0.00 44.0   8.2 49.1   9.8 4.6   1.1
Middletown-West (Atlas VM) 5/19/24 0645 43.8   7.9 97   1 43.2   8.0 1.3 SSW | 209 2.1   2.1 0.00 0.00 38.0   9.3 45.6   10.3 3.3   0.5
Middletown-South 5/19/24 0645 44.8   8.4 94   0 43.3   8.5 0.5 E | 92 1.8   1.8 0.00 0.00 42.7   8.3 47.6   10.1 3.0   0.5
Jim Davis (Langtry) 5/19/24 0645 47.3   6.2 98   3 46.8   5.4 1.9 ENE | 63 3.6   2.4 0.00 0.00 45.1   7.0 52.3   7.1 5.8   0.7
Napa Basin 5/19/24 0645 48.4   2.4 100   0 48.4   2.4 0.6 N | 11 1.4   1.4 0.00 0.00 41.9   6.2 52.2   7.1 5.9   1.0
Lower Bohn 5/19/24 0645 43.6   6.8 100   1 43.6   6.6 0.0 N | 0 0.0   0.0 0.00 0.00 40.4   5.1 47.4   10.6 3.1   2.2
Upper Bohn-North 5/19/24 0645 48.2   3.7 97   1 47.5   3.3 0.4 SSE | 149 1.8   0.4 0.00 0.00 43.8   6.6 51.8   6.9 -
Upper Bohn-South 5/19/24 0645 47.0   5.4 - - 0.7 ESE | 105 2.4   2.4 0.00 0.00 44.6   6.7 50.0   8.9 -
Morgan Valley 5/19/24 0645 60.9   1.4 46   31 40.1   15.2 10.2 WNW | 287 13.4   10.1 0.00 0.00 56.4   3.9 60.9   4.6 14.7   5.1
Mine Pit North 5/19/24 0645 48.3   8.9 100   8 48.3   6.7 7.4 SSW | 211 10.4   3.7 - - 46.0   9.0 52.4   8.0 12.3   0.4
Mine Pit South 5/19/24 0645 47.4   9.5 100   10 47.4   6.8 1.0 SSW | 195 3.7   0.4 0.00 0.00 46.7   8.4 50.8   8.1 12.3   3.7
Cow Mountain 5/19/24 0645 56.0   10.5 - - 10.5 NW | 320 21.5   16.4 0.00 0.00 53.4   11.6 61.6   7.3 27.0   16.9
Ukiah-SE (Ruddick) 5/19/24 0645 41.3   8.4 91   6 38.9   10.0 0.6 WNW | 286 1.7   5.7 0.00 0.00 40.8   8.5 50.0   6.4 3.0   8.9
Max     60.9 100 48.4 10.5 - 21.5 0.00 0.00 56.4 61.7 27.0
Avg     47.1 84 41.3 2.0 - 3.8 0.00 - - - -
Min     38.3 42 31.9 0.0 - 0.0 0.00 0.00 37.1 45.6 2.8